sensor_id;sensor_type;location;lat;lon;timestamp;P1;durP1;ratioP1;P2;durP2;ratioP2
15841;SDS011;8021;48.022;11.812;2023-03-21T00:01:36;0.40;;;0.40;;
15841;SDS011;8021;48.022;11.812;2023-03-21T00:04:04;0.40;;;0.40;;
15841;SDS011;8021;48.022;11.812;2023-03-21T00:06:32;0.35;;;0.35;;
15841;SDS011;8021;48.022;11.812;2023-03-21T00:09:00;0.40;;;0.40;;
15841;SDS011;8021;48.022;11.812;2023-03-21T00:11:29;0.40;;;0.40;;
15841;SDS011;8021;48.022;11.812;2023-03-21T00:13:56;0.40;;;0.40;;
15841;SDS011;8021;48.022;11.812;2023-03-21T00:16:27;0.40;;;0.40;;
15841;SDS011;8021;48.022;11.812;2023-03-21T00:19:01;0.32;;;0.32;;
15841;SDS011;8021;48.022;11.812;2023-03-21T00:21:31;0.32;;;0.32;;
15841;SDS011;8021;48.022;11.812;2023-03-21T00:24:24;0.35;;;0.35;;
15841;SDS011;8021;48.022;11.812;2023-03-21T00:26:52;0.30;;;0.30;;
15841;SDS011;8021;48.022;11.812;2023-03-21T00:29:28;0.32;;;0.32;;
15841;SDS011;8021;48.022;11.812;2023-03-21T00:31:56;0.40;;;0.40;;
15841;SDS011;8021;48.022;11.812;2023-03-21T00:34:23;0.40;;;0.40;;
15841;SDS011;8021;48.022;11.812;2023-03-21T00:37:08;0.35;;;0.35;;
15841;SDS011;8021;48.022;11.812;2023-03-21T00:39:41;0.40;;;0.40;;
15841;SDS011;8021;48.022;11.812;2023-03-21T00:42:10;0.40;;;0.40;;
15841;SDS011;8021;48.022;11.812;2023-03-21T00:44:38;0.38;;;0.38;;
15841;SDS011;8021;48.022;11.812;2023-03-21T00:47:06;0.30;;;0.30;;
15841;SDS011;8021;48.022;11.812;2023-03-21T00:49:34;0.30;;;0.30;;
15841;SDS011;8021;48.022;11.812;2023-03-21T00:52:04;0.50;;;0.50;;
15841;SDS011;8021;48.022;11.812;2023-03-21T00:54:54;0.40;;;0.40;;
15841;SDS011;8021;48.022;11.812;2023-03-21T00:57:21;0.40;;;0.40;;
15841;SDS011;8021;48.022;11.812;2023-03-21T01:00:04;0.30;;;0.30;;
15841;SDS011;8021;48.022;11.812;2023-03-21T01:02:34;0.35;;;0.35;;
15841;SDS011;8021;48.022;11.812;2023-03-21T01:05:03;0.35;;;0.35;;
15841;SDS011;8021;48.022;11.812;2023-03-21T01:07:30;0.30;;;0.30;;
15841;SDS011;8021;48.022;11.812;2023-03-21T01:09:59;0.50;;;0.50;;
15841;SDS011;8021;48.022;11.812;2023-03-21T01:12:27;0.40;;;0.40;;
15841;SDS011;8021;48.022;11.812;2023-03-21T01:14:54;0.50;;;0.50;;
15841;SDS011;8021;48.022;11.812;2023-03-21T01:17:22;0.32;;;0.32;;
15841;SDS011;8021;48.022;11.812;2023-03-21T01:19:50;0.40;;;0.40;;
15841;SDS011;8021;48.022;11.812;2023-03-21T01:22:18;0.30;;;0.30;;
15841;SDS011;8021;48.022;11.812;2023-03-21T01:24:46;0.30;;;0.30;;
15841;SDS011;8021;48.022;11.812;2023-03-21T01:27:36;0.30;;;0.30;;
15841;SDS011;8021;48.022;11.812;2023-03-21T01:30:04;0.30;;;0.30;;
15841;SDS011;8021;48.022;11.812;2023-03-21T01:32:44;0.32;;;0.32;;
15841;SDS011;8021;48.022;11.812;2023-03-21T01:35:12;0.30;;;0.30;;
15841;SDS011;8021;48.022;11.812;2023-03-21T01:37:39;0.30;;;0.30;;
15841;SDS011;8021;48.022;11.812;2023-03-21T01:40:10;0.30;;;0.30;;
15841;SDS011;8021;48.022;11.812;2023-03-21T01:42:41;0.32;;;0.32;;
15841;SDS011;8021;48.022;11.812;2023-03-21T01:47:51;0.40;;;0.40;;
15841;SDS011;8021;48.022;11.812;2023-03-21T01:50:28;0.30;;;0.30;;
15841;SDS011;8021;48.022;11.812;2023-03-21T01:53:09;0.30;;;0.30;;
15841;SDS011;8021;48.022;11.812;2023-03-21T01:55:37;0.30;;;0.30;;
15841;SDS011;8021;48.022;11.812;2023-03-21T01:58:13;0.30;;;0.30;;
15841;SDS011;8021;48.022;11.812;2023-03-21T02:00:51;0.35;;;0.35;;
15841;SDS011;8021;48.022;11.812;2023-03-21T02:03:28;0.30;;;0.30;;
15841;SDS011;8021;48.022;11.812;2023-03-21T02:06:17;0.30;;;0.30;;
15841;SDS011;8021;48.022;11.812;2023-03-21T02:08:51;0.30;;;0.30;;
15841;SDS011;8021;48.022;11.812;2023-03-21T02:11:20;0.30;;;0.30;;
15841;SDS011;8021;48.022;11.812;2023-03-21T02:13:50;0.40;;;0.40;;
15841;SDS011;8021;48.022;11.812;2023-03-21T02:16:40;0.38;;;0.38;;
15841;SDS011;8021;48.022;11.812;2023-03-21T02:19:17;0.40;;;0.40;;
15841;SDS011;8021;48.022;11.812;2023-03-21T02:22:06;0.30;;;0.30;;
15841;SDS011;8021;48.022;11.812;2023-03-21T02:24:56;0.30;;;0.30;;
15841;SDS011;8021;48.022;11.812;2023-03-21T02:27:38;0.30;;;0.30;;
15841;SDS011;8021;48.022;11.812;2023-03-21T02:33:23;0.40;;;0.40;;
15841;SDS011;8021;48.022;11.812;2023-03-21T02:36:02;0.40;;;0.40;;
15841;SDS011;8021;48.022;11.812;2023-03-21T02:38:42;0.40;;;0.40;;
15841;SDS011;8021;48.022;11.812;2023-03-21T02:41:15;0.30;;;0.30;;
15841;SDS011;8021;48.022;11.812;2023-03-21T02:43:46;0.30;;;0.30;;
15841;SDS011;8021;48.022;11.812;2023-03-21T02:46:17;0.40;;;0.40;;
15841;SDS011;8021;48.022;11.812;2023-03-21T02:48:46;0.40;;;0.40;;
15841;SDS011;8021;48.022;11.812;2023-03-21T02:51:17;0.30;;;0.30;;
15841;SDS011;8021;48.022;11.812;2023-03-21T02:53:48;0.40;;;0.40;;
15841;SDS011;8021;48.022;11.812;2023-03-21T02:56:37;0.30;;;0.30;;
15841;SDS011;8021;48.022;11.812;2023-03-21T02:59:05;0.30;;;0.30;;
15841;SDS011;8021;48.022;11.812;2023-03-21T03:01:34;0.30;;;0.30;;
15841;SDS011;8021;48.022;11.812;2023-03-21T03:04:02;0.40;;;0.40;;
15841;SDS011;8021;48.022;11.812;2023-03-21T03:06:30;0.40;;;0.40;;
15841;SDS011;8021;48.022;11.812;2023-03-21T03:09:11;0.30;;;0.30;;
15841;SDS011;8021;48.022;11.812;2023-03-21T03:11:41;0.40;;;0.40;;
15841;SDS011;8021;48.022;11.812;2023-03-21T03:17:21;0.30;;;0.30;;
15841;SDS011;8021;48.022;11.812;2023-03-21T03:19:58;0.40;;;0.40;;
15841;SDS011;8021;48.022;11.812;2023-03-21T03:22:45;0.30;;;0.30;;
15841;SDS011;8021;48.022;11.812;2023-03-21T03:25:16;0.38;;;0.38;;
15841;SDS011;8021;48.022;11.812;2023-03-21T03:28:05;0.40;;;0.40;;
15841;SDS011;8021;48.022;11.812;2023-03-21T03:30:34;0.30;;;0.30;;
15841;SDS011;8021;48.022;11.812;2023-03-21T03:33:13;0.40;;;0.40;;
15841;SDS011;8021;48.022;11.812;2023-03-21T03:35:42;0.40;;;0.40;;
15841;SDS011;8021;48.022;11.812;2023-03-21T03:38:18;0.30;;;0.30;;
15841;SDS011;8021;48.022;11.812;2023-03-21T03:40:52;0.30;;;0.30;;
15841;SDS011;8021;48.022;11.812;2023-03-21T03:43:42;0.45;;;0.45;;
15841;SDS011;8021;48.022;11.812;2023-03-21T03:46:12;0.40;;;0.40;;
15841;SDS011;8021;48.022;11.812;2023-03-21T03:48:45;0.40;;;0.40;;
15841;SDS011;8021;48.022;11.812;2023-03-21T03:51:16;0.35;;;0.35;;
15841;SDS011;8021;48.022;11.812;2023-03-21T03:54:07;0.40;;;0.40;;
15841;SDS011;8021;48.022;11.812;2023-03-21T03:56:38;0.40;;;0.40;;
15841;SDS011;8021;48.022;11.812;2023-03-21T03:59:06;0.47;;;0.47;;
15841;SDS011;8021;48.022;11.812;2023-03-21T04:01:49;0.40;;;0.40;;
15841;SDS011;8021;48.022;11.812;2023-03-21T04:04:18;0.50;;;0.50;;
15841;SDS011;8021;48.022;11.812;2023-03-21T04:06:49;0.40;;;0.40;;
15841;SDS011;8021;48.022;11.812;2023-03-21T04:09:20;0.40;;;0.40;;
15841;SDS011;8021;48.022;11.812;2023-03-21T04:12:04;0.30;;;0.30;;
15841;SDS011;8021;48.022;11.812;2023-03-21T04:14:32;0.30;;;0.30;;
15841;SDS011;8021;48.022;11.812;2023-03-21T04:17:10;0.40;;;0.40;;
15841;SDS011;8021;48.022;11.812;2023-03-21T04:19:38;0.40;;;0.40;;
15841;SDS011;8021;48.022;11.812;2023-03-21T04:22:05;0.40;;;0.40;;
15841;SDS011;8021;48.022;11.812;2023-03-21T04:24:37;0.30;;;0.30;;
15841;SDS011;8021;48.022;11.812;2023-03-21T04:27:07;0.30;;;0.30;;
15841;SDS011;8021;48.022;11.812;2023-03-21T04:29:39;0.30;;;0.30;;
15841;SDS011;8021;48.022;11.812;2023-03-21T04:32:25;0.30;;;0.30;;
15841;SDS011;8021;48.022;11.812;2023-03-21T04:35:03;0.30;;;0.30;;
15841;SDS011;8021;48.022;11.812;2023-03-21T04:37:31;0.30;;;0.30;;
15841;SDS011;8021;48.022;11.812;2023-03-21T04:39:59;0.30;;;0.30;;
15841;SDS011;8021;48.022;11.812;2023-03-21T04:42:30;0.35;;;0.35;;
15841;SDS011;8021;48.022;11.812;2023-03-21T04:44:58;0.30;;;0.30;;
15841;SDS011;8021;48.022;11.812;2023-03-21T04:47:25;0.40;;;0.40;;
15841;SDS011;8021;48.022;11.812;2023-03-21T04:49:53;0.30;;;0.30;;
15841;SDS011;8021;48.022;11.812;2023-03-21T04:52:22;0.30;;;0.30;;
15841;SDS011;8021;48.022;11.812;2023-03-21T04:54:51;0.30;;;0.30;;
15841;SDS011;8021;48.022;11.812;2023-03-21T04:57:18;0.30;;;0.30;;
15841;SDS011;8021;48.022;11.812;2023-03-21T04:59:47;0.30;;;0.30;;
15841;SDS011;8021;48.022;11.812;2023-03-21T05:02:15;0.40;;;0.40;;
15841;SDS011;8021;48.022;11.812;2023-03-21T05:04:42;0.50;;;0.50;;
15841;SDS011;8021;48.022;11.812;2023-03-21T05:07:10;0.32;;;0.32;;
15841;SDS011;8021;48.022;11.812;2023-03-21T05:09:37;0.40;;;0.40;;
15841;SDS011;8021;48.022;11.812;2023-03-21T05:12:05;0.40;;;0.40;;
15841;SDS011;8021;48.022;11.812;2023-03-21T05:14:34;0.40;;;0.40;;
15841;SDS011;8021;48.022;11.812;2023-03-21T05:17:04;0.30;;;0.30;;
15841;SDS011;8021;48.022;11.812;2023-03-21T05:19:33;0.30;;;0.30;;
15841;SDS011;8021;48.022;11.812;2023-03-21T05:22:03;0.30;;;0.30;;
15841;SDS011;8021;48.022;11.812;2023-03-21T05:24:31;0.30;;;0.30;;
15841;SDS011;8021;48.022;11.812;2023-03-21T05:26:59;0.30;;;0.30;;
15841;SDS011;8021;48.022;11.812;2023-03-21T05:29:31;0.40;;;0.40;;
15841;SDS011;8021;48.022;11.812;2023-03-21T05:32:01;0.30;;;0.30;;
15841;SDS011;8021;48.022;11.812;2023-03-21T05:34:30;0.30;;;0.30;;
15841;SDS011;8021;48.022;11.812;2023-03-21T05:36:59;0.40;;;0.40;;
15841;SDS011;8021;48.022;11.812;2023-03-21T05:39:41;0.40;;;0.40;;
15841;SDS011;8021;48.022;11.812;2023-03-21T05:42:15;0.30;;;0.30;;
15841;SDS011;8021;48.022;11.812;2023-03-21T05:44:45;0.40;;;0.40;;
15841;SDS011;8021;48.022;11.812;2023-03-21T05:47:14;0.32;;;0.32;;
15841;SDS011;8021;48.022;11.812;2023-03-21T05:49:45;0.40;;;0.40;;
15841;SDS011;8021;48.022;11.812;2023-03-21T05:52:14;0.40;;;0.40;;
15841;SDS011;8021;48.022;11.812;2023-03-21T05:54:43;0.40;;;0.40;;
15841;SDS011;8021;48.022;11.812;2023-03-21T05:57:11;0.30;;;0.30;;
15841;SDS011;8021;48.022;11.812;2023-03-21T05:59:54;0.30;;;0.30;;
15841;SDS011;8021;48.022;11.812;2023-03-21T06:02:22;0.40;;;0.40;;
15841;SDS011;8021;48.022;11.812;2023-03-21T06:04:51;0.30;;;0.30;;
15841;SDS011;8021;48.022;11.812;2023-03-21T06:07:20;0.40;;;0.40;;
15841;SDS011;8021;48.022;11.812;2023-03-21T06:09:48;0.30;;;0.30;;
15841;SDS011;8021;48.022;11.812;2023-03-21T06:12:16;0.30;;;0.30;;
15841;SDS011;8021;48.022;11.812;2023-03-21T06:15:03;0.40;;;0.40;;
15841;SDS011;8021;48.022;11.812;2023-03-21T06:17:43;0.35;;;0.35;;
15841;SDS011;8021;48.022;11.812;2023-03-21T06:20:12;0.30;;;0.30;;
15841;SDS011;8021;48.022;11.812;2023-03-21T06:22:44;0.40;;;0.40;;
15841;SDS011;8021;48.022;11.812;2023-03-21T06:25:12;0.30;;;0.30;;
15841;SDS011;8021;48.022;11.812;2023-03-21T06:27:40;0.40;;;0.40;;
15841;SDS011;8021;48.022;11.812;2023-03-21T06:30:08;0.45;;;0.45;;
15841;SDS011;8021;48.022;11.812;2023-03-21T06:32:44;0.30;;;0.30;;
15841;SDS011;8021;48.022;11.812;2023-03-21T06:35:17;0.30;;;0.30;;
15841;SDS011;8021;48.022;11.812;2023-03-21T06:37:44;0.40;;;0.40;;
15841;SDS011;8021;48.022;11.812;2023-03-21T06:40:14;0.40;;;0.40;;
15841;SDS011;8021;48.022;11.812;2023-03-21T06:42:43;0.30;;;0.30;;
15841;SDS011;8021;48.022;11.812;2023-03-21T06:45:12;0.43;;;0.43;;
15841;SDS011;8021;48.022;11.812;2023-03-21T06:47:42;0.30;;;0.30;;
15841;SDS011;8021;48.022;11.812;2023-03-21T06:50:22;0.30;;;0.30;;
15841;SDS011;8021;48.022;11.812;2023-03-21T06:52:50;0.30;;;0.30;;
15841;SDS011;8021;48.022;11.812;2023-03-21T06:55:18;0.30;;;0.30;;
15841;SDS011;8021;48.022;11.812;2023-03-21T06:57:52;0.30;;;0.30;;
15841;SDS011;8021;48.022;11.812;2023-03-21T07:00:21;0.30;;;0.30;;
15841;SDS011;8021;48.022;11.812;2023-03-21T07:02:50;0.40;;;0.40;;
15841;SDS011;8021;48.022;11.812;2023-03-21T07:05:18;0.32;;;0.32;;
15841;SDS011;8021;48.022;11.812;2023-03-21T07:07:47;0.40;;;0.40;;
15841;SDS011;8021;48.022;11.812;2023-03-21T07:10:15;0.40;;;0.40;;
15841;SDS011;8021;48.022;11.812;2023-03-21T07:12:52;0.30;;;0.30;;
15841;SDS011;8021;48.022;11.812;2023-03-21T07:15:29;0.30;;;0.30;;
15841;SDS011;8021;48.022;11.812;2023-03-21T07:17:58;0.30;;;0.30;;
15841;SDS011;8021;48.022;11.812;2023-03-21T07:20:26;0.30;;;0.30;;
15841;SDS011;8021;48.022;11.812;2023-03-21T07:22:55;0.30;;;0.30;;
15841;SDS011;8021;48.022;11.812;2023-03-21T07:25:25;0.30;;;0.30;;
15841;SDS011;8021;48.022;11.812;2023-03-21T07:27:53;0.30;;;0.30;;
15841;SDS011;8021;48.022;11.812;2023-03-21T07:30:21;0.30;;;0.30;;
15841;SDS011;8021;48.022;11.812;2023-03-21T07:32:49;0.40;;;0.40;;
15841;SDS011;8021;48.022;11.812;2023-03-21T07:35:16;0.30;;;0.30;;
15841;SDS011;8021;48.022;11.812;2023-03-21T07:37:44;0.30;;;0.30;;
15841;SDS011;8021;48.022;11.812;2023-03-21T07:40:16;0.40;;;0.40;;
15841;SDS011;8021;48.022;11.812;2023-03-21T07:42:43;0.30;;;0.30;;
15841;SDS011;8021;48.022;11.812;2023-03-21T07:45:12;0.40;;;0.40;;
15841;SDS011;8021;48.022;11.812;2023-03-21T07:47:43;0.30;;;0.30;;
15841;SDS011;8021;48.022;11.812;2023-03-21T07:50:11;0.30;;;0.30;;
15841;SDS011;8021;48.022;11.812;2023-03-21T07:52:38;0.40;;;0.40;;
15841;SDS011;8021;48.022;11.812;2023-03-21T07:55:06;0.30;;;0.30;;
15841;SDS011;8021;48.022;11.812;2023-03-21T07:57:35;0.40;;;0.40;;
15841;SDS011;8021;48.022;11.812;2023-03-21T08:00:03;0.30;;;0.30;;
15841;SDS011;8021;48.022;11.812;2023-03-21T08:02:38;0.30;;;0.30;;
15841;SDS011;8021;48.022;11.812;2023-03-21T08:05:06;0.30;;;0.30;;
15841;SDS011;8021;48.022;11.812;2023-03-21T08:07:36;0.30;;;0.30;;
15841;SDS011;8021;48.022;11.812;2023-03-21T08:10:04;0.28;;;0.20;;
15841;SDS011;8021;48.022;11.812;2023-03-21T08:12:32;0.30;;;0.30;;
15841;SDS011;8021;48.022;11.812;2023-03-21T08:15:01;0.30;;;0.20;;
15841;SDS011;8021;48.022;11.812;2023-03-21T08:17:29;0.30;;;0.30;;
15841;SDS011;8021;48.022;11.812;2023-03-21T08:19:56;0.20;;;0.20;;
15841;SDS011;8021;48.022;11.812;2023-03-21T08:22:24;0.30;;;0.30;;
15841;SDS011;8021;48.022;11.812;2023-03-21T08:24:51;0.30;;;0.30;;
15841;SDS011;8021;48.022;11.812;2023-03-21T08:27:19;0.30;;;0.30;;
15841;SDS011;8021;48.022;11.812;2023-03-21T08:29:46;0.20;;;0.20;;
15841;SDS011;8021;48.022;11.812;2023-03-21T08:32:15;0.30;;;0.30;;
15841;SDS011;8021;48.022;11.812;2023-03-21T08:34:44;0.30;;;0.30;;
15841;SDS011;8021;48.022;11.812;2023-03-21T08:37:11;0.30;;;0.30;;
15841;SDS011;8021;48.022;11.812;2023-03-21T08:39:39;0.20;;;0.20;;
15841;SDS011;8021;48.022;11.812;2023-03-21T08:42:06;0.28;;;0.20;;
15841;SDS011;8021;48.022;11.812;2023-03-21T08:44:34;0.30;;;0.30;;
15841;SDS011;8021;48.022;11.812;2023-03-21T08:47:04;0.30;;;0.22;;
15841;SDS011;8021;48.022;11.812;2023-03-21T08:49:33;0.20;;;0.20;;
15841;SDS011;8021;48.022;11.812;2023-03-21T08:52:00;0.30;;;0.30;;
15841;SDS011;8021;48.022;11.812;2023-03-21T08:54:28;0.30;;;0.20;;
15841;SDS011;8021;48.022;11.812;2023-03-21T08:56:56;0.30;;;0.20;;
15841;SDS011;8021;48.022;11.812;2023-03-21T08:59:23;0.30;;;0.30;;
15841;SDS011;8021;48.022;11.812;2023-03-21T09:01:51;0.28;;;0.20;;
15841;SDS011;8021;48.022;11.812;2023-03-21T09:04:18;0.30;;;0.30;;
15841;SDS011;8021;48.022;11.812;2023-03-21T09:06:47;0.30;;;0.20;;
15841;SDS011;8021;48.022;11.812;2023-03-21T09:09:15;0.20;;;0.10;;
15841;SDS011;8021;48.022;11.812;2023-03-21T09:11:43;0.20;;;0.20;;
15841;SDS011;8021;48.022;11.812;2023-03-21T09:14:10;0.30;;;0.20;;
15841;SDS011;8021;48.022;11.812;2023-03-21T09:16:38;0.30;;;0.20;;
15841;SDS011;8021;48.022;11.812;2023-03-21T09:19:06;0.30;;;0.20;;
15841;SDS011;8021;48.022;11.812;2023-03-21T09:21:34;0.20;;;0.20;;
15841;SDS011;8021;48.022;11.812;2023-03-21T09:24:05;0.30;;;0.30;;
15841;SDS011;8021;48.022;11.812;2023-03-21T09:26:32;0.30;;;0.20;;
15841;SDS011;8021;48.022;11.812;2023-03-21T09:29:00;0.20;;;0.20;;
15841;SDS011;8021;48.022;11.812;2023-03-21T09:31:30;0.30;;;0.20;;
15841;SDS011;8021;48.022;11.812;2023-03-21T09:33:58;0.30;;;0.20;;
15841;SDS011;8021;48.022;11.812;2023-03-21T09:36:25;0.30;;;0.20;;
15841;SDS011;8021;48.022;11.812;2023-03-21T09:38:53;0.30;;;0.20;;
15841;SDS011;8021;48.022;11.812;2023-03-21T09:41:28;0.30;;;0.20;;
15841;SDS011;8021;48.022;11.812;2023-03-21T09:44:00;0.20;;;0.20;;
15841;SDS011;8021;48.022;11.812;2023-03-21T09:46:32;0.22;;;0.20;;
15841;SDS011;8021;48.022;11.812;2023-03-21T09:49:03;0.20;;;0.20;;
15841;SDS011;8021;48.022;11.812;2023-03-21T09:51:33;0.30;;;0.20;;
15841;SDS011;8021;48.022;11.812;2023-03-21T09:54:04;0.30;;;0.30;;
15841;SDS011;8021;48.022;11.812;2023-03-21T09:56:35;0.20;;;0.20;;
15841;SDS011;8021;48.022;11.812;2023-03-21T09:59:06;0.30;;;0.22;;
15841;SDS011;8021;48.022;11.812;2023-03-21T10:01:35;0.30;;;0.20;;
15841;SDS011;8021;48.022;11.812;2023-03-21T10:04:07;0.20;;;0.17;;
15841;SDS011;8021;48.022;11.812;2023-03-21T10:06:38;0.20;;;0.20;;
15841;SDS011;8021;48.022;11.812;2023-03-21T10:09:10;0.20;;;0.20;;
15841;SDS011;8021;48.022;11.812;2023-03-21T10:11:41;0.20;;;0.20;;
15841;SDS011;8021;48.022;11.812;2023-03-21T10:14:12;0.20;;;0.10;;
15841;SDS011;8021;48.022;11.812;2023-03-21T10:16:42;0.20;;;0.20;;
15841;SDS011;8021;48.022;11.812;2023-03-21T10:19:11;0.20;;;0.17;;
15841;SDS011;8021;48.022;11.812;2023-03-21T10:21:40;0.20;;;0.20;;
15841;SDS011;8021;48.022;11.812;2023-03-21T10:24:26;0.20;;;0.20;;
15841;SDS011;8021;48.022;11.812;2023-03-21T10:26:55;0.20;;;0.10;;
15841;SDS011;8021;48.022;11.812;2023-03-21T10:29:25;0.20;;;0.20;;
15841;SDS011;8021;48.022;11.812;2023-03-21T10:31:53;0.10;;;0.10;;
15841;SDS011;8021;48.022;11.812;2023-03-21T10:34:24;0.20;;;0.20;;
15841;SDS011;8021;48.022;11.812;2023-03-21T10:36:54;0.20;;;0.10;;
15841;SDS011;8021;48.022;11.812;2023-03-21T10:39:24;0.10;;;0.10;;
15841;SDS011;8021;48.022;11.812;2023-03-21T10:41:55;0.20;;;0.20;;
15841;SDS011;8021;48.022;11.812;2023-03-21T10:44:27;0.20;;;0.20;;
15841;SDS011;8021;48.022;11.812;2023-03-21T10:46:56;0.20;;;0.17;;
15841;SDS011;8021;48.022;11.812;2023-03-21T10:49:24;0.20;;;0.20;;
15841;SDS011;8021;48.022;11.812;2023-03-21T10:51:52;0.20;;;0.20;;
15841;SDS011;8021;48.022;11.812;2023-03-21T10:54:21;0.10;;;0.10;;
15841;SDS011;8021;48.022;11.812;2023-03-21T10:56:51;0.20;;;0.10;;
15841;SDS011;8021;48.022;11.812;2023-03-21T10:59:24;0.10;;;0.10;;
15841;SDS011;8021;48.022;11.812;2023-03-21T11:01:54;0.20;;;0.10;;
15841;SDS011;8021;48.022;11.812;2023-03-21T11:04:23;0.20;;;0.20;;
15841;SDS011;8021;48.022;11.812;2023-03-21T11:06:52;0.13;;;0.13;;
15841;SDS011;8021;48.022;11.812;2023-03-21T11:09:21;0.20;;;0.20;;
15841;SDS011;8021;48.022;11.812;2023-03-21T11:11:51;0.20;;;0.20;;
15841;SDS011;8021;48.022;11.812;2023-03-21T11:14:37;0.20;;;0.10;;
15841;SDS011;8021;48.022;11.812;2023-03-21T11:17:21;0.10;;;0.10;;
15841;SDS011;8021;48.022;11.812;2023-03-21T11:19:50;0.20;;;0.20;;
15841;SDS011;8021;48.022;11.812;2023-03-21T11:22:18;0.20;;;0.20;;
15841;SDS011;8021;48.022;11.812;2023-03-21T11:24:48;0.15;;;0.15;;
15841;SDS011;8021;48.022;11.812;2023-03-21T11:27:16;0.20;;;0.20;;
15841;SDS011;8021;48.022;11.812;2023-03-21T11:29:47;0.20;;;0.20;;
15841;SDS011;8021;48.022;11.812;2023-03-21T11:32:19;0.20;;;0.20;;
15841;SDS011;8021;48.022;11.812;2023-03-21T11:34:47;0.20;;;0.20;;
15841;SDS011;8021;48.022;11.812;2023-03-21T11:37:17;0.20;;;0.20;;
15841;SDS011;8021;48.022;11.812;2023-03-21T11:39:45;0.15;;;0.15;;
15841;SDS011;8021;48.022;11.812;2023-03-21T11:45:06;0.20;;;0.20;;
15841;SDS011;8021;48.022;11.812;2023-03-21T11:47:36;0.20;;;0.20;;
15841;SDS011;8021;48.022;11.812;2023-03-21T11:50:14;0.20;;;0.20;;
15841;SDS011;8021;48.022;11.812;2023-03-21T11:52:44;0.20;;;0.20;;
15841;SDS011;8021;48.022;11.812;2023-03-21T11:55:20;0.20;;;0.20;;
15841;SDS011;8021;48.022;11.812;2023-03-21T11:57:52;0.15;;;0.13;;
15841;SDS011;8021;48.022;11.812;2023-03-21T12:00:28;0.20;;;0.20;;
15841;SDS011;8021;48.022;11.812;2023-03-21T12:03:02;0.20;;;0.20;;
15841;SDS011;8021;48.022;11.812;2023-03-21T12:05:31;0.20;;;0.13;;
15841;SDS011;8021;48.022;11.812;2023-03-21T12:08:02;0.20;;;0.20;;
15841;SDS011;8021;48.022;11.812;2023-03-21T12:10:35;0.20;;;0.13;;
15841;SDS011;8021;48.022;11.812;2023-03-21T12:13:09;0.20;;;0.20;;
15841;SDS011;8021;48.022;11.812;2023-03-21T12:15:42;0.20;;;0.20;;
15841;SDS011;8021;48.022;11.812;2023-03-21T12:18:15;0.20;;;0.20;;
15841;SDS011;8021;48.022;11.812;2023-03-21T12:20:46;0.20;;;0.20;;
15841;SDS011;8021;48.022;11.812;2023-03-21T12:23:20;0.20;;;0.20;;
15841;SDS011;8021;48.022;11.812;2023-03-21T12:25:53;0.20;;;0.10;;
15841;SDS011;8021;48.022;11.812;2023-03-21T12:28:25;0.20;;;0.20;;
15841;SDS011;8021;48.022;11.812;2023-03-21T12:31:02;0.20;;;0.10;;
15841;SDS011;8021;48.022;11.812;2023-03-21T12:33:39;0.20;;;0.20;;
15841;SDS011;8021;48.022;11.812;2023-03-21T12:36:21;0.20;;;0.20;;
15841;SDS011;8021;48.022;11.812;2023-03-21T12:38:51;0.20;;;0.20;;
15841;SDS011;8021;48.022;11.812;2023-03-21T12:41:23;0.20;;;0.20;;
15841;SDS011;8021;48.022;11.812;2023-03-21T12:43:53;0.20;;;0.20;;
15841;SDS011;8021;48.022;11.812;2023-03-21T12:46:25;0.20;;;0.20;;
15841;SDS011;8021;48.022;11.812;2023-03-21T12:48:54;0.20;;;0.20;;
15841;SDS011;8021;48.022;11.812;2023-03-21T12:51:25;0.15;;;0.10;;
15841;SDS011;8021;48.022;11.812;2023-03-21T12:53:55;0.20;;;0.10;;
15841;SDS011;8021;48.022;11.812;2023-03-21T12:56:27;0.20;;;0.20;;
15841;SDS011;8021;48.022;11.812;2023-03-21T12:58:56;0.20;;;0.20;;
15841;SDS011;8021;48.022;11.812;2023-03-21T13:01:26;0.20;;;0.20;;
15841;SDS011;8021;48.022;11.812;2023-03-21T13:03:58;0.20;;;0.20;;
15841;SDS011;8021;48.022;11.812;2023-03-21T13:06:29;0.20;;;0.20;;
15841;SDS011;8021;48.022;11.812;2023-03-21T13:08:57;0.20;;;0.20;;
15841;SDS011;8021;48.022;11.812;2023-03-21T13:11:26;0.10;;;0.10;;
15841;SDS011;8021;48.022;11.812;2023-03-21T13:13:55;0.20;;;0.20;;
15841;SDS011;8021;48.022;11.812;2023-03-21T13:16:27;0.20;;;0.20;;
15841;SDS011;8021;48.022;11.812;2023-03-21T13:18:58;0.10;;;0.10;;
15841;SDS011;8021;48.022;11.812;2023-03-21T13:24:18;0.20;;;0.20;;
15841;SDS011;8021;48.022;11.812;2023-03-21T13:26:47;0.20;;;0.20;;
15841;SDS011;8021;48.022;11.812;2023-03-21T13:29:22;0.20;;;0.20;;
15841;SDS011;8021;48.022;11.812;2023-03-21T13:31:52;0.13;;;0.10;;
15841;SDS011;8021;48.022;11.812;2023-03-21T13:34:22;0.10;;;0.10;;
15841;SDS011;8021;48.022;11.812;2023-03-21T13:36:50;0.10;;;0.10;;
15841;SDS011;8021;48.022;11.812;2023-03-21T13:39:19;0.30;;;0.30;;
15841;SDS011;8021;48.022;11.812;2023-03-21T13:41:50;0.10;;;0.10;;
15841;SDS011;8021;48.022;11.812;2023-03-21T13:44:22;0.20;;;0.20;;
15841;SDS011;8021;48.022;11.812;2023-03-21T13:46:54;0.10;;;0.10;;
15841;SDS011;8021;48.022;11.812;2023-03-21T13:49:26;0.10;;;0.10;;
15841;SDS011;8021;48.022;11.812;2023-03-21T13:51:54;0.20;;;0.20;;
15841;SDS011;8021;48.022;11.812;2023-03-21T13:54:26;0.10;;;0.10;;
15841;SDS011;8021;48.022;11.812;2023-03-21T13:56:56;0.20;;;0.20;;
15841;SDS011;8021;48.022;11.812;2023-03-21T13:59:39;0.20;;;0.20;;
15841;SDS011;8021;48.022;11.812;2023-03-21T14:02:28;0.10;;;0.10;;
15841;SDS011;8021;48.022;11.812;2023-03-21T14:05:00;0.20;;;0.20;;
15841;SDS011;8021;48.022;11.812;2023-03-21T14:07:31;0.17;;;0.10;;
15841;SDS011;8021;48.022;11.812;2023-03-21T14:10:00;0.15;;;0.15;;
15841;SDS011;8021;48.022;11.812;2023-03-21T14:12:34;0.10;;;0.10;;
15841;SDS011;8021;48.022;11.812;2023-03-21T14:15:04;0.20;;;0.20;;
15841;SDS011;8021;48.022;11.812;2023-03-21T14:17:49;0.20;;;0.20;;
15841;SDS011;8021;48.022;11.812;2023-03-21T14:20:18;0.20;;;0.20;;
15841;SDS011;8021;48.022;11.812;2023-03-21T14:22:46;0.20;;;0.20;;
15841;SDS011;8021;48.022;11.812;2023-03-21T14:25:15;0.10;;;0.10;;
15841;SDS011;8021;48.022;11.812;2023-03-21T14:27:44;0.20;;;0.20;;
15841;SDS011;8021;48.022;11.812;2023-03-21T14:30:18;0.15;;;0.10;;
15841;SDS011;8021;48.022;11.812;2023-03-21T14:32:46;0.20;;;0.20;;
15841;SDS011;8021;48.022;11.812;2023-03-21T14:35:15;0.20;;;0.20;;
15841;SDS011;8021;48.022;11.812;2023-03-21T14:37:45;0.15;;;0.10;;
15841;SDS011;8021;48.022;11.812;2023-03-21T14:40:18;0.20;;;0.20;;
15841;SDS011;8021;48.022;11.812;2023-03-21T14:42:45;0.15;;;0.15;;
15841;SDS011;8021;48.022;11.812;2023-03-21T14:45:14;0.10;;;0.10;;
15841;SDS011;8021;48.022;11.812;2023-03-21T14:47:56;0.20;;;0.20;;
15841;SDS011;8021;48.022;11.812;2023-03-21T14:50:27;0.20;;;0.20;;
15841;SDS011;8021;48.022;11.812;2023-03-21T14:52:56;0.20;;;0.20;;
15841;SDS011;8021;48.022;11.812;2023-03-21T14:55:24;0.17;;;0.17;;
15841;SDS011;8021;48.022;11.812;2023-03-21T14:57:53;0.20;;;0.20;;
15841;SDS011;8021;48.022;11.812;2023-03-21T15:00:22;0.15;;;0.15;;
15841;SDS011;8021;48.022;11.812;2023-03-21T15:02:50;0.10;;;0.10;;
15841;SDS011;8021;48.022;11.812;2023-03-21T15:05:19;0.20;;;0.20;;
15841;SDS011;8021;48.022;11.812;2023-03-21T15:07:53;0.10;;;0.10;;
15841;SDS011;8021;48.022;11.812;2023-03-21T15:10:22;0.20;;;0.20;;
15841;SDS011;8021;48.022;11.812;2023-03-21T15:12:51;0.10;;;0.10;;
15841;SDS011;8021;48.022;11.812;2023-03-21T15:15:19;0.20;;;0.20;;
15841;SDS011;8021;48.022;11.812;2023-03-21T15:17:50;0.20;;;0.20;;
15841;SDS011;8021;48.022;11.812;2023-03-21T15:20:20;0.20;;;0.20;;
15841;SDS011;8021;48.022;11.812;2023-03-21T15:22:49;0.10;;;0.10;;
15841;SDS011;8021;48.022;11.812;2023-03-21T15:25:19;0.10;;;0.10;;
15841;SDS011;8021;48.022;11.812;2023-03-21T15:27:48;0.10;;;0.10;;